Portada
METAR-TAF:

METAR-TAF

Aeroports :

Antofagasta, Xile

latitud: 23-26S, longitud: 070-26W, altitud: 135 m

Observació

L'informe es va fer fa 32 minuts, a les 07:00 UTC
Vent 2 kt del Est
Temperatura 19°C
Humitat 83%
Pressió 1014 hPa
Visibilitat 10 km o més
sense núvols per sota de 1500 mi sense presència de cumulonimbus.

METAR: SCFA 250700Z 08002KT CAVOK 19/16 Q1014 NOSIG

Hora: 04:32 (07:32 UTC)

Pronòstic

L'informe es va fer fa 3 hores i 5 minuts, a les 04:27 UTC
Pronòstic vàlid del 25 a les 06 UTC al 26 a les 06 UTC
Vent 4 kt del Est
Visibilitat 10 km o més
sense núvols per sota de 1500 mi sense presència de cumulonimbus.
Evolucionant progressivament
l' 25 a les 15 UTC al 25 a les 17 UTC
Vent 14 kt del Sud/Sud-Oest
Escasses núvols a una alçada de 2000 ft
Evolucionant progressivament
l' 26 a les 02 UTC al 26 a les 04 UTC
Vent 4 kt del Sud

TAF: SCFA 250427Z 2506/2606 09004KT CAVOK TN19/2506Z TX23/2516Z BECMG 2515/2517 20014KT FEW020 BECMG 2602/2604 18004KT

Observacions i pronòstics meteorològics de més de 4000 aeroports (METAR i TAF).

Les estacions disponibles són els punts grocs i vermells al mapa.

Posi el ratolí al punt desitjat per veure el nom de l'estació.

Feu clic per veure les observacions i els pronòstics meteorològics.

Per canviar el mapa: feu clic els botons verds amb una creu de color negre per apropar; al botó verd amb un guió per allunyar la imatge; o en les fletxes verdes per a mapes adjacents.


METAR-TAF: